Time;durP1;ratioP1;P1;durP2;ratioP2;P2;SDS_P1;SDS_P2;PMS_P1;PMS_P2;Temp;Humidity;BMP_temperature;BMP_pressure;BME280_temperature;BME280_humidity;BME280_pressure;Samples;Min_cycle;Max_cycle;Signal;HPM_P1;HPM_P2
2023/11/11 05:00:20;;;;;;;1.48;1.48;;;7.70;99.90;;;;;;5961878;23;20187;-73
2023/11/11 05:02:47;;;;;;;2.67;1.75;;;7.70;99.90;;;;;;4982923;28;20578;-73
2023/11/11 05:05:14;;;;;;;2.80;1.75;;;7.70;99.90;;;;;;4988046;28;20246;-73
2023/11/11 05:07:41;;;;;;;4.30;1.77;;;7.70;99.90;;;;;;4989776;28;20217;-72
2023/11/11 05:10:10;;;;;;;2.15;1.88;;;7.70;99.90;;;;;;4987140;28;20667;-73
2023/11/11 05:12:37;;;;;;;2.25;2.13;;;7.70;99.90;;;;;;4967779;28;20263;-73
2023/11/11 05:15:07;;;;;;;2.65;2.30;;;7.70;99.90;;;;;;4988973;23;20268;-71
2023/11/11 05:17:35;;;;;;;3.90;1.80;;;7.70;99.90;;;;;;4979784;28;20207;-72
2023/11/11 05:20:02;;;;;;;1.88;1.77;;;7.70;99.90;;;;;;4981982;28;20200;-72
2023/11/11 05:22:29;;;;;;;2.58;2.47;;;7.70;99.90;;;;;;4989568;28;20212;-72
2023/11/11 05:24:56;;;;;;;5.50;2.05;;;7.70;99.90;;;;;;4981476;28;20239;-72
2023/11/11 05:27:24;;;;;;;1.98;1.83;;;7.70;99.90;;;;;;4977158;28;20252;-72
2023/11/11 05:29:50;;;;;;;9.73;3.58;;;7.70;99.90;;;;;;4981192;28;20666;-72
2023/11/11 05:32:17;;;;;;;30.17;18.77;;;7.70;99.90;;;;;;4981140;28;20218;-71
2023/11/11 05:34:45;;;;;;;25.17;17.00;;;7.70;99.90;;;;;;4975611;28;20228;-72
2023/11/11 05:37:12;;;;;;;4.65;4.00;;;7.70;99.90;;;;;;4982580;28;20213;-72
2023/11/11 05:39:39;;;;;;;2.67;2.47;;;7.70;99.90;;;;;;4984111;28;20200;-72
2023/11/11 05:42:05;;;;;;;2.45;2.20;;;7.70;99.90;;;;;;4979525;28;20205;-72
2023/11/11 05:44:32;;;;;;;2.67;2.08;;;7.70;99.90;;;;;;4980164;28;20616;-72
2023/11/11 05:46:59;;;;;;;3.42;2.08;;;7.70;99.90;;;;;;4979901;28;20565;-72
2023/11/11 05:49:26;;;;;;;1.92;1.67;;;7.70;99.90;;;;;;4971854;28;20221;-72
2023/11/11 05:51:54;;;;;;;5.70;2.50;;;7.70;99.90;;;;;;4982080;28;20228;-72
2023/11/11 05:54:21;;;;;;;6.72;5.70;;;7.70;99.90;;;;;;4983598;28;20207;-72
2023/11/11 05:56:47;;;;;;;8.57;6.57;;;7.70;99.90;;;;;;4986109;28;20233;-72
2023/11/11 05:59:14;;;;;;;3.95;3.03;;;7.70;99.90;;;;;;4989325;28;20271;-73
2023/11/11 06:01:45;;;;;;;3.20;2.90;;;7.70;99.90;;;;;;4988852;28;20746;-73
2023/11/11 06:04:12;;;;;;;5.88;4.45;;;7.70;99.90;;;;;;4982718;28;20287;-73
2023/11/11 06:06:41;;;;;;;9.07;7.07;;;7.70;99.90;;;;;;4977963;28;20717;-72
2023/11/11 06:09:10;;;;;;;29.75;17.17;;;7.60;99.90;;;;;;4983798;28;20304;-73
2023/11/11 06:11:43;;;;;;;16.70;12.25;;;7.70;99.90;;;;;;4981312;28;20224;-74
2023/11/11 06:14:09;;;;;;;22.92;12.82;;;7.60;99.90;;;;;;4983313;28;20525;-73
2023/11/11 06:16:36;;;;;;;24.83;11.40;;;7.70;99.90;;;;;;4981996;28;20216;-72
2023/11/11 06:19:03;;;;;;;3.72;3.53;;;7.70;99.90;;;;;;4984275;28;20296;-72
2023/11/11 06:21:30;;;;;;;12.43;9.40;;;7.70;99.90;;;;;;4983129;28;20208;-73
2023/11/11 06:23:57;;;;;;;10.25;7.80;;;7.70;99.90;;;;;;4982813;28;20213;-74
2023/11/11 06:26:25;;;;;;;9.93;8.13;;;7.70;99.90;;;;;;4982391;28;20322;-73
2023/11/11 06:28:52;;;;;;;10.00;8.73;;;7.70;99.90;;;;;;4983242;28;20268;-72
2023/11/11 06:31:19;;;;;;;16.60;8.10;;;7.70;99.90;;;;;;4986123;28;20212;-72
2023/11/11 06:33:46;;;;;;;4.57;4.20;;;7.70;99.90;;;;;;4985901;28;20205;-72
2023/11/11 06:36:15;;;;;;;11.02;8.52;;;7.70;99.90;;;;;;4984891;28;20225;-73
2023/11/11 06:38:42;;;;;;;23.92;15.95;;;7.70;99.90;;;;;;4988308;28;20216;-71
2023/11/11 06:41:09;;;;;;;15.15;9.82;;;7.70;99.90;;;;;;4984057;28;20213;-73
2023/11/11 06:43:39;;;;;;;5.70;3.95;;;7.70;99.90;;;;;;4976523;28;20206;-71
2023/11/11 06:46:06;;;;;;;4.22;3.92;;;7.70;99.90;;;;;;4981438;28;20232;-72
2023/11/11 06:48:33;;;;;;;13.55;10.00;;;7.70;99.90;;;;;;4989150;28;20474;-73
2023/11/11 06:51:00;;;;;;;15.13;9.73;;;7.70;99.90;;;;;;4989815;28;20208;-72
2023/11/11 06:53:27;;;;;;;14.60;10.07;;;7.70;99.90;;;;;;4989000;28;20208;-73
2023/11/11 06:55:54;;;;;;;20.88;13.38;;;7.70;99.90;;;;;;4989466;28;20228;-71
2023/11/11 06:58:21;;;;;;;9.35;8.18;;;7.70;99.90;;;;;;4991286;28;20205;-72
2023/11/11 07:00:50;;;;;;;29.40;15.77;;;7.70;99.90;;;;;;4988836;28;20207;-70
2023/11/11 07:03:17;;;;;;;13.57;9.93;;;7.70;99.90;;;;;;4989195;28;20202;-72
2023/11/11 07:05:44;;;;;;;20.17;14.07;;;7.80;99.90;;;;;;4990080;28;20638;-72
2023/11/11 07:08:11;;;;;;;19.27;12.93;;;7.80;99.90;;;;;;4990440;28;20234;-72
2023/11/11 07:10:38;;;;;;;17.92;12.68;;;7.80;99.90;;;;;;4986252;28;20212;-71
2023/11/11 07:13:04;;;;;;;14.65;10.30;;;7.80;99.90;;;;;;4983868;28;20209;-72
2023/11/11 07:15:31;;;;;;;20.98;15.30;;;7.80;99.90;;;;;;4990725;28;20235;-72
2023/11/11 07:17:59;;;;;;;8.00;6.32;;;7.80;99.90;;;;;;4986794;28;20216;-72
2023/11/11 07:20:28;;;;;;;12.27;7.80;;;7.80;99.90;;;;;;4983057;28;20235;-71
2023/11/11 07:22:55;;;;;;;13.02;9.82;;;7.80;99.90;;;;;;4993181;28;20209;-72
2023/11/11 07:25:23;;;;;;;21.95;15.10;;;7.80;99.90;;;;;;4979719;28;20256;-72
2023/11/11 07:27:50;;;;;;;5.50;4.90;;;7.90;99.90;;;;;;4980412;28;20254;-71
2023/11/11 07:30:17;;;;;;;9.48;4.07;;;7.80;99.90;;;;;;4992580;28;20217;-71
2023/11/11 07:32:44;;;;;;;4.40;4.10;;;7.90;99.90;;;;;;4992678;28;20213;-73
2023/11/11 07:35:12;;;;;;;11.10;7.00;;;7.90;99.90;;;;;;4984251;28;20229;-73
2023/11/11 07:37:42;;;;;;;4.80;4.30;;;7.90;99.90;;;;;;4984686;28;20957;-74
2023/11/11 07:40:12;;;;;;;3.42;3.30;;;8.00;99.90;;;;;;4982450;28;20276;-74
2023/11/11 07:42:39;;;;;;;4.60;4.30;;;8.00;99.90;;;;;;4985471;28;20295;-74
2023/11/11 07:45:06;;;;;;;2.85;2.70;;;8.00;99.90;;;;;;4990502;28;20260;-72
2023/11/11 07:47:34;;;;;;;2.90;2.80;;;8.00;99.90;;;;;;4985045;28;20214;-73
2023/11/11 07:50:00;;;;;;;7.47;3.20;;;7.90;99.90;;;;;;4993692;28;20205;-72
2023/11/11 07:52:29;;;;;;;3.42;3.17;;;7.90;99.90;;;;;;4995439;28;20215;-72
2023/11/11 07:54:58;;;;;;;3.00;2.78;;;7.90;99.90;;;;;;4977586;28;20722;-72
2023/11/11 07:57:25;;;;;;;3.03;2.75;;;7.90;99.90;;;;;;4975870;28;20213;-72
2023/11/11 07:59:52;;;;;;;3.90;3.20;;;7.90;99.90;;;;;;4978162;28;20714;-72
2023/11/11 08:02:18;;;;;;;4.82;3.58;;;7.90;99.90;;;;;;4993172;28;20208;-73
2023/11/11 08:04:45;;;;;;;4.20;2.78;;;7.90;99.90;;;;;;4978874;28;20224;-72
2023/11/11 08:07:13;;;;;;;3.55;3.13;;;7.90;99.90;;;;;;4991829;28;20568;-72
2023/11/11 08:09:41;;;;;;;7.20;3.72;;;7.90;99.90;;;;;;4977261;28;20621;-72
2023/11/11 08:12:09;;;;;;;3.00;2.75;;;7.90;99.90;;;;;;4993370;28;20536;-72
2023/11/11 08:14:35;;;;;;;9.15;5.70;;;8.00;99.90;;;;;;4980541;28;20611;-72
2023/11/11 08:17:02;;;;;;;7.90;4.82;;;8.00;99.90;;;;;;4984989;28;20213;-73
2023/11/11 08:19:29;;;;;;;5.88;4.80;;;8.00;99.90;;;;;;4976857;28;20211;-71
2023/11/11 08:21:56;;;;;;;4.82;4.40;;;8.00;99.90;;;;;;4981551;28;20213;-72
2023/11/11 08:24:22;;;;;;;4.32;3.55;;;8.00;99.90;;;;;;4987189;28;20583;-73
2023/11/11 08:26:50;;;;;;;13.40;5.00;;;8.00;99.90;;;;;;4988498;28;20222;-72
2023/11/11 08:29:17;;;;;;;22.15;10.20;;;8.00;99.90;;;;;;4980804;28;20676;-73
2023/11/11 08:31:44;;;;;;;23.90;15.15;;;8.00;99.90;;;;;;4988586;28;20257;-72
2023/11/11 08:34:10;;;;;;;16.98;10.65;;;8.00;99.90;;;;;;4992472;28;20709;-73
2023/11/11 08:36:38;;;;;;;9.87;8.73;;;8.00;99.90;;;;;;4988954;28;20205;-72
2023/11/11 08:39:05;;;;;;;24.52;11.50;;;8.10;99.90;;;;;;4977796;28;20209;-72
2023/11/11 08:41:31;;;;;;;7.40;6.70;;;8.10;99.90;;;;;;4985719;28;20237;-72
2023/11/11 08:43:59;;;;;;;4.32;4.03;;;8.10;99.90;;;;;;4981430;28;20265;-72
2023/11/11 08:46:27;;;;;;;9.93;7.13;;;8.20;99.90;;;;;;4973548;28;20246;-72
2023/11/11 08:48:54;;;;;;;10.38;7.30;;;8.20;99.90;;;;;;4974922;28;20215;-72
2023/11/11 08:51:21;;;;;;;4.13;2.90;;;8.30;99.90;;;;;;4990686;28;20209;-71
2023/11/11 08:53:48;;;;;;;3.53;3.33;;;8.30;99.90;;;;;;4992292;28;20220;-71
2023/11/11 08:56:15;;;;;;;5.45;2.83;;;8.20;99.90;;;;;;4988996;28;20277;-71
2023/11/11 08:58:41;;;;;;;5.85;4.68;;;8.30;99.90;;;;;;4973852;28;20211;-71
2023/11/11 09:01:10;;;;;;;3.08;2.97;;;8.30;99.90;;;;;;4987389;28;20220;-71
2023/11/11 09:03:36;;;;;;;2.53;2.42;;;8.30;99.90;;;;;;4981293;28;20209;-71
2023/11/11 09:06:05;;;;;;;2.40;2.20;;;8.30;99.90;;;;;;4972861;28;20264;-72
2023/11/11 09:08:32;;;;;;;15.20;9.05;;;8.30;99.90;;;;;;4979618;28;20297;-72
2023/11/11 09:10:59;;;;;;;4.07;3.08;;;8.20;99.90;;;;;;4983334;28;20213;-72
2023/11/11 09:13:26;;;;;;;3.42;3.08;;;8.20;99.90;;;;;;4987098;28;20241;-72
2023/11/11 09:15:53;;;;;;;17.17;10.50;;;8.30;99.90;;;;;;4983594;28;20253;-72
2023/11/11 09:18:21;;;;;;;8.80;7.03;;;8.30;99.90;;;;;;4982071;28;20207;-72
2023/11/11 09:20:48;;;;;;;4.68;4.25;;;8.40;99.90;;;;;;4991078;28;20237;-71
2023/11/11 09:23:15;;;;;;;4.90;4.60;;;8.30;99.90;;;;;;4983525;28;20719;-71
2023/11/11 09:25:42;;;;;;;2.30;2.20;;;8.30;99.90;;;;;;4985385;28;20226;-72
2023/11/11 09:28:09;;;;;;;5.18;4.05;;;8.30;99.90;;;;;;4974658;28;20594;-73
2023/11/11 09:30:36;;;;;;;10.88;5.25;;;8.30;99.90;;;;;;4990861;28;20244;-73
2023/11/11 09:33:03;;;;;;;4.43;3.60;;;8.40;99.90;;;;;;4988307;28;20233;-73
2023/11/11 09:35:31;;;;;;;8.73;6.00;;;8.40;99.90;;;;;;4974176;28;20269;-72
2023/11/11 09:37:58;;;;;;;4.57;3.50;;;8.40;99.90;;;;;;4984690;28;20213;-72
2023/11/11 09:40:26;;;;;;;4.65;3.88;;;8.40;99.90;;;;;;4989658;28;20716;-72
2023/11/11 09:42:53;;;;;;;4.03;3.63;;;8.40;99.90;;;;;;4991226;28;20262;-72
2023/11/11 09:45:21;;;;;;;19.55;14.43;;;8.40;99.90;;;;;;4974205;28;20237;-72
2023/11/11 09:47:52;;;;;;;2.20;2.10;;;8.40;99.90;;;;;;4972053;28;20229;-73
2023/11/11 09:50:23;;;;;;;2.35;2.28;;;8.40;99.90;;;;;;4987724;28;20212;-72
2023/11/11 09:52:52;;;;;;;2.17;1.73;;;8.30;99.90;;;;;;4983297;28;20209;-73
2023/11/11 09:55:20;;;;;;;2.05;1.95;;;8.20;99.90;;;;;;4979635;28;20231;-74
2023/11/11 09:57:48;;;;;;;3.90;3.55;;;8.20;99.90;;;;;;4971931;28;20203;-73
2023/11/11 10:00:16;;;;;;;2.90;2.70;;;8.20;99.90;;;;;;4985395;28;20204;-72
2023/11/11 10:02:43;;;;;;;2.80;2.60;;;8.20;99.90;;;;;;4990853;28;20214;-72
2023/11/11 10:05:10;;;;;;;2.00;1.90;;;8.20;99.90;;;;;;4972939;28;20597;-72
2023/11/11 10:07:37;;;;;;;6.53;4.97;;;8.20;99.90;;;;;;4971621;28;20235;-71
2023/11/11 10:10:08;;;;;;;6.22;5.60;;;8.30;99.90;;;;;;4979791;28;20207;-72
2023/11/11 10:12:37;;;;;;;9.07;7.22;;;8.30;99.90;;;;;;4981724;28;20213;-71
2023/11/11 10:15:04;;;;;;;8.80;6.63;;;8.30;99.90;;;;;;4980345;28;20739;-72
2023/11/11 10:17:31;;;;;;;5.35;4.95;;;8.40;99.90;;;;;;4986200;28;20239;-72
2023/11/11 10:19:59;;;;;;;7.93;7.20;;;8.40;99.90;;;;;;4982865;28;20241;-72
2023/11/11 10:22:26;;;;;;;3.55;3.28;;;8.40;99.90;;;;;;4982902;28;20259;-72
2023/11/11 10:24:52;;;;;;;3.58;3.35;;;8.40;99.90;;;;;;4990838;28;20236;-72
2023/11/11 10:27:20;;;;;;;3.03;2.83;;;8.40;99.90;;;;;;4971798;28;20236;-71
2023/11/11 10:29:48;;;;;;;6.43;5.88;;;8.40;99.90;;;;;;4982774;28;20214;-72
2023/11/11 10:32:15;;;;;;;4.20;3.80;;;8.50;99.90;;;;;;4988128;28;20257;-72
2023/11/11 10:34:41;;;;;;;6.85;5.18;;;8.50;99.90;;;;;;4979898;28;20318;-72
2023/11/11 10:37:09;;;;;;;5.75;4.20;;;8.50;99.90;;;;;;4984932;28;20294;-72
2023/11/11 10:39:39;;;;;;;9.07;5.88;;;8.50;99.90;;;;;;4981256;28;20210;-72
2023/11/11 10:42:06;;;;;;;8.10;6.20;;;8.50;99.90;;;;;;4979567;28;20215;-72
2023/11/11 10:44:34;;;;;;;5.88;5.18;;;8.60;99.90;;;;;;4971523;28;20633;-73
2023/11/11 10:47:01;;;;;;;4.55;3.42;;;8.70;99.90;;;;;;4974232;28;20262;-72
2023/11/11 10:49:28;;;;;;;7.50;3.75;;;8.70;99.90;;;;;;4981611;28;20211;-72
2023/11/11 10:51:58;;;;;;;4.32;3.28;;;8.80;99.90;;;;;;4986831;28;20689;-73
2023/11/11 10:54:26;;;;;;;3.60;3.30;;;8.80;99.90;;;;;;4986226;28;20207;-71
2023/11/11 10:56:54;;;;;;;4.43;3.65;;;8.80;99.90;;;;;;4975672;28;20243;-74
2023/11/11 10:59:23;;;;;;;5.47;3.70;;;8.80;99.90;;;;;;4978221;28;20670;-72
2023/11/11 11:01:51;;;;;;;5.05;3.53;;;8.70;99.90;;;;;;4990424;28;20622;-72
2023/11/11 11:04:19;;;;;;;12.50;9.10;;;8.70;99.90;;;;;;4984407;28;20253;-73
2023/11/11 11:06:52;;;;;;;9.10;6.93;;;8.70;99.90;;;;;;4975166;28;20701;-72
2023/11/11 11:09:27;;;;;;;6.97;6.20;;;8.70;99.90;;;;;;4981148;28;20602;-73
2023/11/11 11:12:05;;;;;;;5.25;4.38;;;8.60;99.90;;;;;;4994167;28;20217;-73
2023/11/11 11:14:44;;;;;;;5.05;4.40;;;8.60;99.90;;;;;;4981873;28;20232;-71
2023/11/11 11:17:12;;;;;;;6.50;5.35;;;8.50;99.90;;;;;;4986413;28;20330;-73
2023/11/11 11:19:53;;;;;;;4.43;4.07;;;8.50;99.90;;;;;;4983466;28;20217;-72
2023/11/11 11:22:23;;;;;;;6.65;4.47;;;8.40;99.90;;;;;;4982348;28;20837;-72
2023/11/11 11:24:50;;;;;;;5.43;4.93;;;8.40;99.90;;;;;;4989414;28;20232;-71
2023/11/11 11:27:17;;;;;;;6.00;4.75;;;8.40;99.90;;;;;;4983555;28;20230;-72
2023/11/11 11:29:44;;;;;;;5.90;4.50;;;8.40;99.90;;;;;;4980937;28;20211;-72
2023/11/11 11:32:12;;;;;;;7.82;5.75;;;8.40;99.90;;;;;;4990556;28;20211;-72
2023/11/11 11:34:40;;;;;;;4.53;4.13;;;8.40;99.90;;;;;;4991321;28;20326;-72
2023/11/11 11:37:10;;;;;;;5.13;4.63;;;8.40;99.90;;;;;;4993515;28;20204;-72
2023/11/11 11:39:50;;;;;;;5.03;4.55;;;8.40;99.90;;;;;;4988508;28;20208;-72
2023/11/11 11:42:20;;;;;;;6.60;5.10;;;8.40;99.90;;;;;;4973168;28;20211;-71
2023/11/11 11:44:55;;;;;;;5.38;4.95;;;8.50;99.90;;;;;;4993073;28;20253;-71
2023/11/11 11:47:25;;;;;;;5.75;4.93;;;8.50;99.90;;;;;;4985470;28;20228;-71
2023/11/11 11:49:51;;;;;;;5.72;5.03;;;8.50;99.90;;;;;;4979063;28;20662;-72
2023/11/11 11:52:19;;;;;;;6.57;5.35;;;8.50;99.90;;;;;;4973388;28;20210;-72
2023/11/11 11:54:46;;;;;;;7.82;6.10;;;8.50;99.90;;;;;;4983864;28;20276;-72
2023/11/11 11:57:13;;;;;;;7.00;5.47;;;8.60;99.90;;;;;;4989915;28;20685;-73
2023/11/11 11:59:40;;;;;;;6.75;4.75;;;8.50;99.90;;;;;;4972791;28;20229;-71
2023/11/11 12:02:10;;;;;;;4.80;4.50;;;8.40;99.90;;;;;;4973351;28;20215;-71
2023/11/11 12:04:40;;;;;;;6.07;4.57;;;8.40;99.90;;;;;;4982780;28;20689;-71
2023/11/11 12:07:07;;;;;;;4.47;4.07;;;8.40;99.90;;;;;;4992123;28;20288;-71
2023/11/11 12:09:35;;;;;;;4.75;4.45;;;8.40;99.90;;;;;;4973767;28;20238;-71
2023/11/11 12:12:06;;;;;;;9.32;4.38;;;8.40;99.90;;;;;;4981363;28;20626;-72
2023/11/11 12:14:33;;;;;;;5.35;4.20;;;8.40;99.90;;;;;;4988680;28;20239;-71
2023/11/11 12:17:00;;;;;;;4.60;4.28;;;8.40;99.90;;;;;;4987617;28;20220;-71
2023/11/11 12:19:27;;;;;;;4.78;4.38;;;8.40;99.90;;;;;;4984445;28;20209;-72
2023/11/11 12:21:56;;;;;;;4.30;4.00;;;8.50;99.90;;;;;;4977530;28;20215;-72
2023/11/11 12:24:25;;;;;;;4.10;3.80;;;8.50;99.90;;;;;;4990905;28;20215;-71
2023/11/11 12:26:53;;;;;;;5.80;4.70;;;8.60;99.90;;;;;;4992985;28;20256;-72
2023/11/11 12:29:20;;;;;;;5.00;4.50;;;8.70;99.90;;;;;;4974347;28;20591;-72
2023/11/11 12:31:48;;;;;;;4.78;4.38;;;8.80;99.90;;;;;;4973192;28;20647;-72
2023/11/11 12:34:17;;;;;;;5.13;4.65;;;8.90;99.90;;;;;;4988756;28;20225;-72
2023/11/11 12:36:44;;;;;;;4.97;4.57;;;8.90;99.90;;;;;;4993134;28;20226;-73
2023/11/11 12:39:13;;;;;;;4.55;4.25;;;8.80;99.90;;;;;;4975996;28;20207;-71
2023/11/11 12:41:44;;;;;;;4.28;3.55;;;8.80;99.90;;;;;;4973087;28;20215;-72
2023/11/11 12:44:11;;;;;;;4.18;3.75;;;8.80;99.90;;;;;;4987989;28;20337;-72
2023/11/11 12:46:41;;;;;;;4.88;3.28;;;8.70;99.90;;;;;;4992076;28;20258;-72
2023/11/11 12:49:10;;;;;;;3.58;2.75;;;8.70;99.90;;;;;;4975431;28;20210;-73
2023/11/11 12:51:38;;;;;;;4.43;4.03;;;8.70;99.90;;;;;;4972523;28;20622;-74
2023/11/11 12:54:05;;;;;;;4.00;3.63;;;8.70;99.90;;;;;;4986562;28;20306;-74
2023/11/11 12:56:34;;;;;;;4.13;3.83;;;8.70;99.90;;;;;;4987742;28;20265;-72
2023/11/11 12:59:08;;;;;;;3.42;3.15;;;8.70;99.90;;;;;;4976515;28;20207;-72
2023/11/11 13:01:35;;;;;;;3.70;3.50;;;8.70;99.90;;;;;;4984156;28;20555;-71
2023/11/11 13:04:04;;;;;;;3.80;3.60;;;8.70;99.90;;;;;;4985577;28;20580;-72
2023/11/11 13:06:33;;;;;;;2.80;2.70;;;8.70;99.90;;;;;;4988015;28;20234;-72
2023/11/11 13:09:00;;;;;;;3.70;3.40;;;8.70;99.90;;;;;;4976373;28;20310;-72
2023/11/11 13:11:26;;;;;;;3.00;2.90;;;8.80;99.90;;;;;;4981457;28;20204;-73
2023/11/11 13:13:55;;;;;;;4.10;3.85;;;8.70;99.90;;;;;;4983089;28;20204;-72
2023/11/11 13:16:21;;;;;;;2.97;2.88;;;8.70;99.90;;;;;;4990479;28;20238;-73
2023/11/11 13:18:48;;;;;;;3.35;3.05;;;8.70;99.90;;;;;;4983600;28;20220;-73
2023/11/11 13:21:15;;;;;;;3.75;3.45;;;8.70;99.90;;;;;;4974544;28;20675;-72
2023/11/11 13:23:42;;;;;;;3.17;2.97;;;8.80;99.90;;;;;;4978404;28;20284;-73
2023/11/11 13:26:10;;;;;;;2.80;2.70;;;8.80;99.90;;;;;;4991566;28;20226;-74
2023/11/11 13:28:37;;;;;;;4.20;3.80;;;8.80;99.90;;;;;;4979628;28;20313;-74
2023/11/11 13:31:05;;;;;;;3.65;3.35;;;8.80;99.90;;;;;;4983803;28;20658;-71
2023/11/11 13:33:32;;;;;;;3.72;3.40;;;8.80;99.90;;;;;;4990060;28;20213;-72
2023/11/11 13:36:02;;;;;;;3.40;3.22;;;8.90;99.90;;;;;;4987314;28;20223;-72
2023/11/11 13:38:31;;;;;;;4.20;4.00;;;8.90;99.90;;;;;;4980770;28;20305;-71
2023/11/11 13:40:57;;;;;;;2.72;2.63;;;8.90;99.90;;;;;;4971929;28;20269;-70
2023/11/11 13:43:25;;;;;;;16.02;13.27;;;8.90;99.90;;;;;;4974952;28;20730;-71
2023/11/11 13:45:52;;;;;;;5.35;4.95;;;8.90;99.90;;;;;;4987513;28;20235;-73
2023/11/11 13:48:21;;;;;;;6.18;5.88;;;8.90;99.90;;;;;;4981709;28;20713;-73
2023/11/11 13:50:48;;;;;;;3.50;3.30;;;8.90;99.90;;;;;;4986335;28;20302;-74
2023/11/11 13:53:15;;;;;;;3.33;3.22;;;8.90;99.90;;;;;;4973372;28;20658;-73
2023/11/11 13:55:42;;;;;;;3.22;3.03;;;8.80;99.90;;;;;;4982921;28;20226;-72
2023/11/11 13:58:09;;;;;;;3.58;3.38;;;8.70;99.90;;;;;;4978574;28;20562;-73
2023/11/11 14:00:38;;;;;;;2.85;2.75;;;8.70;99.90;;;;;;4987760;28;20218;-73
2023/11/11 14:03:05;;;;;;;3.47;3.28;;;8.70;99.90;;;;;;4982272;28;20215;-73
2023/11/11 14:05:33;;;;;;;2.45;2.35;;;8.60;99.90;;;;;;4990162;28;20316;-73
2023/11/11 14:08:01;;;;;;;2.70;2.67;;;8.60;99.90;;;;;;4976189;28;20608;-73
2023/11/11 14:10:28;;;;;;;3.15;2.95;;;8.50;99.90;;;;;;4971637;28;20665;-73
2023/11/11 14:12:56;;;;;;;2.35;2.17;;;8.50;99.90;;;;;;4971531;28;20210;-73
2023/11/11 14:15:32;;;;;;;4.65;4.25;;;8.50;99.90;;;;;;4985501;28;20233;-73
2023/11/11 14:17:58;;;;;;;3.05;2.70;;;8.50;99.90;;;;;;4987694;28;20201;-73
2023/11/11 14:20:28;;;;;;;2.38;2.25;;;8.50;99.90;;;;;;4983098;28;20220;-74
2023/11/11 14:22:57;;;;;;;2.40;2.30;;;8.50;99.90;;;;;;4993106;28;20206;-72
2023/11/11 14:25:23;;;;;;;2.83;2.63;;;8.50;99.90;;;;;;4981179;28;20227;-73
2023/11/11 14:27:50;;;;;;;3.45;2.95;;;8.50;99.90;;;;;;4971846;28;20238;-72
2023/11/11 14:30:18;;;;;;;1.83;1.80;;;8.50;99.90;;;;;;4982582;28;20728;-73
2023/11/11 14:32:47;;;;;;;1.60;1.60;;;8.50;99.90;;;;;;4983681;28;20230;-73
2023/11/11 14:35:16;;;;;;;1.90;1.80;;;8.50;99.90;;;;;;4975757;28;20257;-74
2023/11/11 14:37:42;;;;;;;2.50;2.40;;;8.50;99.90;;;;;;4983970;28;20298;-73
2023/11/11 14:40:15;;;;;;;2.83;2.20;;;8.50;99.90;;;;;;4971752;28;20628;-73
2023/11/11 14:42:43;;;;;;;2.75;2.40;;;8.60;99.90;;;;;;4979948;28;20952;-73
2023/11/11 14:45:11;;;;;;;2.90;2.70;;;8.60;99.90;;;;;;4989971;28;20230;-73
2023/11/11 14:47:38;;;;;;;3.33;3.13;;;8.60;99.90;;;;;;4986990;28;20707;-74
2023/11/11 14:50:07;;;;;;;4.00;2.97;;;8.60;99.90;;;;;;4982590;28;20627;-73
2023/11/11 14:52:34;;;;;;;3.00;2.70;;;8.60;99.90;;;;;;4986135;28;20252;-73
2023/11/11 14:55:01;;;;;;;1.80;1.70;;;8.60;99.90;;;;;;4979411;28;20230;-73
2023/11/11 14:57:29;;;;;;;2.65;2.55;;;8.60;99.90;;;;;;4973099;28;20211;-74
2023/11/11 14:59:56;;;;;;;5.85;3.70;;;8.60;99.90;;;;;;4971206;28;20208;-73
2023/11/11 15:02:22;;;;;;;3.08;2.85;;;8.50;99.90;;;;;;4987111;28;20233;-73
2023/11/11 15:04:49;;;;;;;2.17;2.08;;;8.50;99.90;;;;;;4990688;28;20232;-73
2023/11/11 15:07:16;;;;;;;3.22;2.95;;;8.50;99.90;;;;;;4974518;28;20293;-73
2023/11/11 15:09:44;;;;;;;4.72;4.25;;;8.40;99.90;;;;;;4971757;28;20222;-73
2023/11/11 15:12:11;;;;;;;3.00;2.78;;;8.40;99.90;;;;;;4977437;28;20623;-73
2023/11/11 15:14:39;;;;;;;3.85;3.55;;;8.30;99.90;;;;;;4975944;28;21017;-74
2023/11/11 15:17:06;;;;;;;3.55;3.33;;;8.20;99.90;;;;;;4972096;28;20207;-73
2023/11/11 15:19:32;;;;;;;3.90;3.58;;;8.20;99.90;;;;;;4986822;28;20205;-73
2023/11/11 15:21:59;;;;;;;2.50;2.40;;;8.20;99.90;;;;;;4984459;28;20205;-73
2023/11/11 15:24:26;;;;;;;2.47;2.33;;;8.20;99.90;;;;;;4980736;28;20222;-72
2023/11/11 15:26:55;;;;;;;4.18;3.97;;;8.10;99.90;;;;;;4981855;28;20229;-73
2023/11/11 15:29:22;;;;;;;8.30;4.80;;;8.10;99.90;;;;;;4982200;28;20327;-73
2023/11/11 15:31:50;;;;;;;14.48;7.45;;;8.10;99.90;;;;;;4988221;28;20291;-73
2023/11/11 15:34:16;;;;;;;8.77;4.95;;;8.10;99.90;;;;;;4981627;28;20322;-73
2023/11/11 15:36:43;;;;;;;5.40;4.03;;;8.10;99.90;;;;;;4982246;28;20203;-73
2023/11/11 15:39:14;;;;;;;10.82;7.20;;;8.20;99.90;;;;;;4974442;28;20238;-73
2023/11/11 15:41:41;;;;;;;15.45;8.48;;;8.20;99.90;;;;;;4989854;28;20208;-73
2023/11/11 15:44:08;;;;;;;8.27;6.97;;;8.20;99.90;;;;;;4985576;28;20212;-73
2023/11/11 15:46:35;;;;;;;2.38;2.25;;;8.20;99.90;;;;;;4974795;28;20769;-73
2023/11/11 15:49:03;;;;;;;4.43;3.63;;;8.20;99.90;;;;;;4973843;28;20248;-72
2023/11/11 15:51:30;;;;;;;2.97;2.72;;;8.10;99.90;;;;;;4984465;28;20624;-72
2023/11/11 15:53:57;;;;;;;3.75;3.45;;;8.10;99.90;;;;;;4981872;28;20207;-73
2023/11/11 15:56:24;;;;;;;3.50;3.20;;;8.10;99.90;;;;;;4973967;28;20223;-73
2023/11/11 15:58:51;;;;;;;4.13;3.72;;;8.10;99.90;;;;;;4982745;28;21954;-74
2023/11/11 16:01:19;;;;;;;5.25;4.70;;;8.10;99.90;;;;;;4984485;28;20239;-73
2023/11/11 16:03:47;;;;;;;2.55;2.45;;;8.10;99.90;;;;;;4974304;28;20577;-73
2023/11/11 16:06:16;;;;;;;3.30;3.10;;;8.10;99.90;;;;;;4981092;28;20255;-73
2023/11/11 16:08:43;;;;;;;9.10;7.38;;;8.00;99.90;;;;;;4990242;28;20226;-72
2023/11/11 16:11:11;;;;;;;8.48;7.28;;;8.00;99.90;;;;;;4984881;28;20657;-73
2023/11/11 16:13:39;;;;;;;5.78;5.38;;;8.00;99.90;;;;;;4982348;28;20206;-73
2023/11/11 16:16:06;;;;;;;31.55;18.92;;;8.00;99.90;;;;;;4980160;28;20254;-73
2023/11/11 16:18:33;;;;;;;3.28;3.08;;;8.00;99.90;;;;;;4985181;28;20206;-74
2023/11/11 16:21:00;;;;;;;2.70;2.50;;;8.00;99.90;;;;;;4984027;28;20666;-74
2023/11/11 16:23:30;;;;;;;4.30;3.88;;;8.00;99.90;;;;;;4983979;28;20320;-74
2023/11/11 16:25:57;;;;;;;3.08;2.97;;;7.90;99.90;;;;;;4978296;28;20301;-73
2023/11/11 16:28:24;;;;;;;5.13;3.13;;;7.90;99.90;;;;;;4983920;28;20301;-73
2023/11/11 16:30:51;;;;;;;2.65;2.47;;;7.90;99.90;;;;;;4977783;28;20214;-74
2023/11/11 16:33:19;;;;;;;4.63;4.05;;;7.90;99.90;;;;;;4984478;28;20668;-74
2023/11/11 16:35:47;;;;;;;2.83;2.72;;;7.90;99.90;;;;;;4987809;28;20732;-72
2023/11/11 16:38:14;;;;;;;2.97;2.28;;;7.80;99.90;;;;;;4983401;28;20201;-73
2023/11/11 16:40:47;;;;;;;3.17;2.97;;;7.80;99.90;;;;;;4980875;28;20210;-72
2023/11/11 16:43:14;;;;;;;2.78;2.60;;;7.80;99.90;;;;;;4973068;28;20276;-73
2023/11/11 16:45:41;;;;;;;3.50;2.60;;;7.80;99.90;;;;;;4974726;28;20227;-73
2023/11/11 16:48:09;;;;;;;3.17;2.97;;;7.70;99.90;;;;;;4985218;28;20233;-75
2023/11/11 16:50:37;;;;;;;4.97;4.60;;;7.70;99.90;;;;;;4986585;28;20219;-73
2023/11/11 16:53:04;;;;;;;6.20;5.70;;;7.60;99.90;;;;;;4973033;28;20210;-73
2023/11/11 16:55:30;;;;;;;16.02;12.32;;;7.60;99.90;;;;;;4972872;28;20288;-74
2023/11/11 16:57:59;;;;;;;27.02;14.15;;;7.50;99.90;;;;;;4987509;28;20204;-73
2023/11/11 17:00:26;;;;;;;14.93;8.85;;;7.50;99.90;;;;;;4980950;28;20768;-75
2023/11/11 17:02:55;;;;;;;43.33;23.70;;;7.40;99.90;;;;;;4984047;28;20294;-73
2023/11/11 17:05:22;;;;;;;46.97;18.92;;;7.40;99.90;;;;;;4991490;28;20242;-74
2023/11/11 17:07:54;;;;;;;10.77;8.02;;;7.30;99.90;;;;;;4982395;28;20216;-74
2023/11/11 17:10:22;;;;;;;13.00;8.52;;;7.30;99.90;;;;;;4988544;28;20228;-73
2023/11/11 17:12:49;;;;;;;4.97;4.57;;;7.20;99.90;;;;;;4972588;28;20212;-74
2023/11/11 17:15:17;;;;;;;17.00;12.00;;;7.20;99.90;;;;;;4973222;28;20236;-74
2023/11/11 17:17:44;;;;;;;24.27;15.10;;;7.20;99.90;;;;;;4981602;28;20675;-74
2023/11/11 17:20:11;;;;;;;8.82;7.90;;;7.10;99.90;;;;;;4987059;28;20207;-75
2023/11/11 17:22:38;;;;;;;6.43;4.63;;;7.10;99.90;;;;;;4981165;28;20267;-75
2023/11/11 17:25:06;;;;;;;13.30;9.85;;;7.00;99.90;;;;;;5014151;23;20278;-69
2023/11/11 17:27:33;;;;;;;10.48;8.60;;;6.90;99.90;;;;;;4993471;28;20204;-69
2023/11/11 17:30:15;;;;;;;7.65;6.97;;;6.90;99.90;;;;;;4985942;28;20264;-68
2023/11/11 17:32:43;;;;;;;8.77;8.05;;;6.80;99.90;;;;;;4973458;28;20375;-70
2023/11/11 17:35:10;;;;;;;10.10;8.68;;;6.80;99.90;;;;;;4964758;28;20205;-69
2023/11/11 17:37:37;;;;;;;10.05;9.05;;;6.70;99.90;;;;;;4974846;28;20294;-69
2023/11/11 17:40:06;;;;;;;11.80;10.70;;;6.70;99.90;;;;;;4984193;28;20643;-70
2023/11/11 17:42:33;;;;;;;10.25;9.05;;;6.60;99.90;;;;;;4977328;28;20204;-69
2023/11/11 17:45:00;;;;;;;10.73;9.73;;;6.60;99.90;;;;;;4964033;28;20212;-70
2023/11/11 17:47:27;;;;;;;5.53;5.22;;;6.60;99.90;;;;;;4981787;28;20284;-69
2023/11/11 17:49:55;;;;;;;9.63;8.85;;;6.50;99.90;;;;;;4973234;28;20323;-69
2023/11/11 17:52:22;;;;;;;9.32;8.43;;;6.50;99.90;;;;;;4973563;28;20212;-69
2023/11/11 17:54:48;;;;;;;9.02;8.20;;;6.50;99.90;;;;;;4954444;29;20490;-70